createdAt,value
2022-09-15T00:01:06.714Z,79.72
2022-09-15T00:03:33.907Z,79.68
2022-09-15T00:06:00.610Z,79.45
2022-09-15T00:08:27.264Z,79.71
2022-09-15T00:10:57.366Z,79.48
2022-09-15T00:13:24.943Z,79.62
2022-09-15T00:15:53.461Z,79.31
2022-09-15T00:18:20.760Z,79.57
2022-09-15T00:20:47.603Z,79.53
2022-09-15T00:23:16.048Z,79.75
2022-09-15T00:25:43.200Z,79.80
2022-09-15T00:28:09.812Z,79.66
2022-09-15T00:30:41.182Z,79.99
2022-09-15T00:33:09.445Z,80.00
2022-09-15T00:35:37.850Z,79.98
2022-09-15T00:38:04.441Z,80.07
2022-09-15T00:40:31.129Z,80.07
2022-09-15T00:42:57.974Z,79.68
2022-09-15T00:45:24.721Z,79.88
2022-09-15T00:47:52.305Z,80.07
2022-09-15T00:50:21.429Z,80.31
2022-09-15T00:52:52.648Z,80.21
2022-09-15T00:55:23.892Z,80.21
2022-09-15T00:57:55.526Z,80.06
2022-09-15T01:00:24.396Z,80.16
2022-09-15T01:02:51.198Z,80.14
2022-09-15T01:05:21.990Z,80.22
2022-09-15T01:07:58.352Z,80.11
2022-09-15T01:10:27.760Z,80.28
2022-09-15T01:12:57.217Z,80.15
2022-09-15T01:15:28.556Z,80.45
2022-09-15T01:18:09.343Z,80.59
2022-09-15T01:20:56.168Z,80.43
2022-09-15T01:23:54.690Z,80.55
2022-09-15T01:26:49.868Z,80.81
2022-09-15T01:29:52.275Z,80.89
2022-09-15T01:32:23.398Z,80.72
2022-09-15T01:35:00.182Z,81.01
2022-09-15T01:37:31.382Z,81.22
2022-09-15T01:40:00.806Z,81.18
2022-09-15T01:42:30.208Z,81.23
2022-09-15T01:45:03.215Z,81.39
2022-09-15T01:47:30.766Z,81.17
2022-09-15T01:50:02.494Z,81.69
2022-09-15T01:52:30.557Z,81.37
2022-09-15T01:55:05.023Z,81.52
2022-09-15T01:57:31.656Z,81.59
2022-09-15T02:00:00.026Z,81.63
2022-09-15T02:02:30.760Z,81.49
2022-09-15T02:05:01.644Z,81.24
2022-09-15T02:07:38.357Z,81.58
2022-09-15T02:10:11.166Z,81.82
2022-09-15T02:12:45.702Z,81.67
2022-09-15T02:15:17.225Z,81.50
2022-09-15T02:17:47.657Z,81.32
2022-09-15T02:20:20.019Z,81.27
2022-09-15T02:22:49.589Z,81.13
2022-09-15T02:25:19.329Z,80.85
2022-09-15T02:27:50.110Z,81.00
2022-09-15T02:30:19.504Z,80.97
2022-09-15T02:32:51.569Z,81.51
2022-09-15T02:35:18.504Z,80.87
2022-09-15T02:37:45.847Z,80.56
2022-09-15T02:40:12.927Z,80.13
2022-09-15T02:42:39.557Z,80.18
2022-09-15T02:45:07.195Z,80.27
2022-09-15T02:47:35.175Z,80.38
2022-09-15T02:50:01.735Z,80.63
2022-09-15T02:52:28.295Z,80.51
2022-09-15T02:54:54.917Z,80.29
2022-09-15T02:57:21.537Z,80.37
2022-09-15T02:59:48.154Z,80.80
2022-09-15T03:02:14.949Z,80.66
2022-09-15T03:04:42.919Z,80.43
2022-09-15T03:07:09.513Z,80.39
2022-09-15T03:09:36.067Z,80.51
2022-09-15T03:12:02.709Z,79.84
2022-09-15T03:14:29.581Z,80.09
2022-09-15T03:16:56.440Z,80.25
2022-09-15T03:19:22.992Z,79.85
2022-09-15T03:21:51.017Z,79.97
2022-09-15T03:24:17.987Z,80.02
2022-09-15T03:26:44.597Z,79.91
2022-09-15T03:29:11.260Z,79.78
2022-09-15T03:31:38.213Z,79.65
2022-09-15T03:34:04.886Z,79.68
2022-09-15T03:36:31.496Z,79.68
2022-09-15T03:39:00.029Z,79.82
2022-09-15T03:41:27.090Z,79.56
2022-09-15T03:43:53.840Z,79.85
2022-09-15T03:46:20.680Z,79.77
2022-09-15T03:48:47.277Z,79.88
2022-09-15T03:51:14.490Z,80.26
2022-09-15T03:53:41.983Z,80.25
2022-09-15T03:56:13.641Z,80.16
2022-09-15T03:58:40.271Z,80.15
2022-09-15T04:01:06.911Z,80.28
2022-09-15T04:03:33.584Z,80.61
2022-09-15T04:06:00.250Z,80.45
2022-09-15T04:08:26.948Z,80.63
2022-09-15T04:10:53.584Z,80.64
2022-09-15T04:13:26.653Z,80.63
2022-09-15T04:15:59.014Z,80.86
2022-09-15T04:18:25.679Z,80.58
2022-09-15T04:20:52.298Z,80.63
2022-09-15T04:23:18.883Z,80.66
2022-09-15T04:25:54.721Z,80.77
2022-09-15T04:28:22.790Z,81.05
2022-09-15T04:30:49.407Z,81.18
2022-09-15T04:33:15.956Z,80.82
2022-09-15T04:35:42.621Z,80.99
2022-09-15T04:38:09.232Z,81.13
2022-09-15T04:40:35.979Z,81.43
2022-09-15T04:43:02.801Z,81.62
2022-09-15T04:45:30.697Z,82.02
2022-09-15T04:47:57.347Z,82.08
2022-09-15T04:50:23.973Z,82.55
2022-09-15T04:52:50.591Z,82.64
2022-09-15T04:55:17.149Z,83.08
2022-09-15T04:57:43.745Z,82.96
2022-09-15T05:00:11.797Z,83.22
2022-09-15T05:02:39.764Z,82.92
2022-09-15T05:05:06.991Z,82.80
2022-09-15T05:07:33.502Z,82.95
2022-09-15T05:10:00.024Z,83.28
2022-09-15T05:12:26.559Z,82.81
2022-09-15T05:14:53.849Z,83.10
2022-09-15T05:17:22.314Z,83.46
2022-09-15T05:19:53.098Z,83.22
2022-09-15T05:22:19.707Z,83.37
2022-09-15T05:24:46.925Z,83.31
2022-09-15T05:27:13.477Z,83.57
2022-09-15T05:29:40.131Z,83.59
2022-09-15T05:32:06.716Z,83.48
2022-09-15T05:34:33.440Z,83.52
2022-09-15T05:37:01.524Z,83.63
2022-09-15T05:39:28.226Z,83.84
2022-09-15T05:41:54.891Z,83.31
2022-09-15T05:44:21.582Z,83.35
2022-09-15T05:46:48.766Z,83.85
2022-09-15T05:49:15.888Z,83.90
2022-09-15T05:51:42.526Z,83.94
2022-09-15T05:54:10.389Z,84.15
2022-09-15T05:56:36.960Z,84.26
2022-09-15T05:59:03.636Z,84.21
2022-09-15T06:01:30.917Z,84.18
2022-09-15T06:03:58.213Z,84.06
2022-09-15T06:06:26.054Z,84.62
2022-09-15T06:08:58.102Z,84.92
2022-09-15T06:11:28.547Z,84.67
2022-09-15T06:13:55.196Z,84.23
2022-09-15T06:16:23.154Z,84.01
2022-09-15T06:18:51.769Z,84.08
2022-09-15T06:21:19.902Z,83.62
2022-09-15T06:23:50.620Z,83.32
2022-09-15T06:26:18.939Z,82.98
2022-09-15T06:28:50.295Z,83.06
2022-09-15T06:31:17.480Z,82.93
2022-09-15T06:33:45.364Z,82.88
2022-09-15T06:36:12.461Z,82.60
2022-09-15T06:38:39.489Z,82.08
2022-09-15T06:41:07.049Z,82.52
2022-09-15T06:43:34.276Z,82.52
2022-09-15T06:46:07.659Z,82.20
2022-09-15T06:48:34.441Z,80.86
2022-09-15T06:51:02.094Z,81.45
2022-09-15T06:53:29.685Z,81.07
2022-09-15T06:56:01.828Z,81.20
2022-09-15T06:58:28.404Z,81.36
2022-09-15T07:00:55.260Z,80.56
2022-09-15T07:03:23.311Z,80.68
2022-09-15T07:05:50.006Z,80.36
2022-09-15T07:08:16.609Z,80.05
2022-09-15T07:10:44.086Z,80.22
2022-09-15T07:13:10.784Z,80.67
2022-09-15T07:15:37.364Z,79.53
2022-09-15T07:18:04.122Z,79.47
2022-09-15T07:20:32.109Z,79.61
2022-09-15T07:22:58.780Z,79.54
2022-09-15T07:25:25.465Z,79.12
2022-09-15T07:27:52.019Z,78.81
2022-09-15T07:30:18.617Z,78.26
2022-09-15T07:32:45.229Z,78.47
2022-09-15T07:35:11.747Z,79.02
2022-09-15T07:37:39.768Z,78.25
2022-09-15T07:40:07.649Z,78.01
2022-09-15T07:42:35.546Z,78.42
2022-09-15T07:45:02.366Z,77.52
2022-09-15T07:47:28.951Z,77.96
2022-09-15T07:49:55.513Z,77.16
2022-09-15T07:52:22.066Z,77.11
2022-09-15T07:54:50.101Z,76.61
2022-09-15T07:57:16.823Z,76.78
2022-09-15T07:59:43.381Z,75.78
2022-09-15T08:02:16.442Z,75.44
2022-09-15T08:04:43.221Z,75.43
2022-09-15T08:07:10.008Z,75.52
2022-09-15T08:09:36.817Z,75.01
2022-09-15T08:12:06.483Z,74.75
2022-09-15T08:14:33.722Z,74.60
2022-09-15T08:17:01.010Z,75.53
2022-09-15T08:19:27.725Z,74.20
2022-09-15T08:21:54.597Z,73.73
2022-09-15T08:24:21.580Z,73.77
2022-09-15T08:26:48.193Z,74.19
2022-09-15T08:29:16.566Z,74.23
2022-09-15T08:31:43.232Z,74.35
2022-09-15T08:34:11.701Z,73.56
2022-09-15T08:36:38.624Z,73.62
2022-09-15T08:39:05.397Z,73.00
2022-09-15T08:41:35.295Z,72.82
2022-09-15T08:44:10.960Z,72.58
2022-09-15T08:46:43.071Z,72.83
2022-09-15T08:49:13.004Z,72.66
2022-09-15T08:51:46.073Z,73.25
2022-09-15T08:54:19.731Z,73.14
2022-09-15T08:56:47.788Z,72.70
2022-09-15T08:59:15.941Z,71.58
2022-09-15T09:02:02.073Z,71.84
2022-09-15T09:04:43.093Z,71.05
2022-09-15T09:07:26.710Z,71.49
2022-09-15T09:09:59.385Z,72.27
2022-09-15T09:12:46.263Z,71.51
2022-09-15T09:15:25.247Z,70.95
2022-09-15T09:18:16.312Z,69.92
2022-09-15T09:20:52.575Z,69.83
2022-09-15T09:23:23.496Z,70.57
2022-09-15T09:25:50.760Z,69.53
2022-09-15T09:28:28.864Z,69.33
2022-09-15T09:30:58.288Z,68.88
2022-09-15T09:33:30.519Z,69.52
2022-09-15T09:35:59.852Z,68.87
2022-09-15T09:38:30.365Z,69.07
2022-09-15T09:41:01.932Z,67.66
2022-09-15T09:43:30.947Z,67.33
2022-09-15T09:45:57.850Z,65.78
2022-09-15T09:48:27.434Z,66.23
2022-09-15T09:50:54.312Z,65.85
2022-09-15T09:53:27.354Z,65.12
2022-09-15T09:55:54.835Z,65.39
2022-09-15T10:01:40.992Z,65.79
2022-09-15T10:07:33.961Z,64.93
2022-09-15T10:10:01.759Z,64.56
2022-09-15T10:12:34.363Z,64.13
2022-09-15T10:15:02.969Z,64.67
2022-09-15T10:17:41.222Z,63.49
2022-09-15T10:20:23.707Z,62.15
2022-09-15T10:23:01.111Z,62.59
2022-09-15T10:25:55.169Z,61.29
2022-09-15T10:28:22.186Z,59.45
2022-09-15T10:31:03.579Z,58.03
2022-09-15T10:33:32.426Z,57.21
2022-09-15T10:36:05.400Z,57.05
2022-09-15T10:38:40.071Z,58.78
2022-09-15T10:41:17.297Z,59.54
2022-09-15T10:43:55.566Z,60.25
2022-09-15T10:46:27.061Z,58.36
2022-09-15T10:49:07.396Z,59.29
2022-09-15T10:51:45.952Z,57.74
2022-09-15T10:54:34.774Z,57.82
2022-09-15T10:57:07.584Z,58.73
2022-09-15T10:59:42.637Z,58.09
2022-09-15T11:02:23.295Z,59.44
2022-09-15T11:05:04.693Z,59.59
2022-09-15T11:07:39.929Z,58.64
2022-09-15T11:10:16.704Z,57.97
2022-09-15T11:13:00.135Z,56.32
2022-09-15T11:15:42.527Z,55.59
2022-09-15T11:18:40.438Z,55.63
2022-09-15T11:21:27.456Z,55.10
2022-09-15T11:24:13.227Z,55.75
2022-09-15T11:26:45.642Z,56.80
2022-09-15T11:29:20.026Z,56.01
2022-09-15T11:31:52.298Z,57.08
2022-09-15T11:34:24.704Z,56.79
2022-09-15T11:36:56.870Z,56.30
2022-09-15T11:39:25.898Z,54.96
2022-09-15T11:41:58.739Z,55.51
2022-09-15T11:44:30.226Z,56.56
2022-09-15T11:47:05.450Z,55.12
2022-09-15T11:49:39.042Z,56.09
2022-09-15T11:52:14.423Z,55.97
2022-09-15T11:54:46.517Z,57.16
2022-09-15T11:57:20.282Z,57.09
2022-09-15T11:59:53.404Z,57.37
2022-09-15T12:02:31.733Z,57.25
2022-09-15T12:05:07.423Z,57.96
2022-09-15T12:07:40.633Z,58.05
2022-09-15T12:10:15.148Z,58.59
2022-09-15T12:12:44.425Z,58.87
2022-09-15T12:15:16.301Z,57.65
2022-09-15T12:17:50.735Z,58.01
2022-09-15T12:20:23.138Z,56.47
2022-09-15T12:22:55.443Z,55.58
2022-09-15T12:25:26.236Z,55.41
2022-09-15T12:31:25.245Z,54.26
2022-09-15T12:33:56.838Z,54.03
2022-09-15T12:36:41.692Z,53.44
2022-09-15T12:39:24.068Z,54.21
2022-09-15T12:41:52.836Z,54.78
2022-09-15T12:44:25.048Z,54.15
2022-09-15T12:46:55.258Z,54.21
2022-09-15T12:49:28.049Z,55.19
2022-09-15T12:51:55.240Z,53.79
2022-09-15T12:54:26.182Z,53.56
2022-09-15T12:56:54.694Z,54.11
2022-09-15T12:59:24.607Z,53.34
2022-09-15T13:01:53.300Z,52.70
2022-09-15T13:04:44.800Z,53.37
2022-09-15T13:07:36.391Z,53.64
2022-09-15T13:10:30.201Z,54.04
2022-09-15T13:13:10.444Z,52.12
2022-09-15T13:15:43.300Z,53.01
2022-09-15T13:18:13.607Z,51.92
2022-09-15T13:20:48.525Z,53.36
2022-09-15T13:23:16.438Z,52.53
2022-09-15T13:25:45.562Z,52.14
2022-09-15T13:28:22.834Z,53.30
2022-09-15T13:31:09.882Z,53.79
2022-09-15T13:40:32.912Z,52.10
2022-09-15T13:43:31.986Z,52.32
2022-09-15T13:46:14.791Z,51.18
2022-09-15T13:48:50.017Z,51.45
2022-09-15T13:51:24.366Z,52.00
2022-09-15T13:53:54.297Z,50.92
2022-09-15T13:56:26.322Z,50.88
2022-09-15T13:59:00.189Z,52.27
2022-09-15T14:01:35.270Z,52.88
2022-09-15T14:04:07.156Z,53.17
2022-09-15T14:06:37.739Z,53.56
2022-09-15T14:09:11.650Z,53.09
2022-09-15T14:11:39.455Z,53.69
2022-09-15T14:14:10.850Z,54.62
2022-09-15T14:16:38.679Z,53.39
2022-09-15T14:19:32.322Z,53.70
2022-09-15T14:22:01.011Z,53.98
2022-09-15T14:24:30.159Z,54.57
2022-09-15T14:26:59.408Z,54.33
2022-09-15T14:29:27.153Z,53.95
2022-09-15T14:31:59.089Z,54.75
2022-09-15T14:34:30.081Z,54.06
2022-09-15T14:37:03.209Z,54.02
2022-09-15T14:39:30.601Z,53.23
2022-09-15T14:41:57.304Z,51.15
2022-09-15T14:47:19.926Z,51.69
2022-09-15T14:49:46.710Z,52.35
2022-09-15T14:52:26.120Z,51.29
2022-09-15T14:54:58.339Z,52.21
2022-09-15T14:57:56.616Z,51.39
2022-09-15T15:00:28.051Z,52.10
2022-09-15T15:03:04.010Z,52.59
2022-09-15T15:05:35.361Z,52.57
2022-09-15T15:08:06.286Z,53.45
2022-09-15T15:10:35.854Z,53.65
2022-09-15T15:13:08.012Z,54.94
2022-09-15T15:15:37.921Z,55.03
2022-09-15T15:18:30.873Z,55.75
2022-09-15T15:20:58.444Z,56.26
2022-09-15T15:23:28.330Z,57.08
2022-09-15T15:26:32.807Z,56.75
2022-09-15T15:29:01.172Z,56.75
2022-09-15T15:31:29.062Z,56.77
2022-09-15T15:33:58.141Z,58.09
2022-09-15T15:36:26.859Z,59.08
2022-09-15T15:38:56.832Z,60.67
2022-09-15T15:41:26.050Z,61.42
2022-09-15T15:43:59.319Z,62.04
2022-09-15T15:46:48.476Z,62.54
2022-09-15T15:49:15.688Z,63.22
2022-09-15T15:51:42.431Z,62.72
2022-09-15T15:54:09.276Z,63.60
2022-09-15T15:56:37.980Z,63.91
2022-09-15T15:59:05.107Z,63.86
2022-09-15T16:01:33.291Z,63.71
2022-09-15T16:04:01.373Z,63.77
2022-09-15T16:06:28.180Z,63.97
2022-09-15T16:09:01.406Z,63.91
2022-09-15T16:11:28.077Z,63.24
2022-09-15T16:13:54.680Z,64.20
2022-09-15T16:16:23.507Z,64.67
2022-09-15T16:18:51.281Z,63.83
2022-09-15T16:21:21.515Z,63.51
2022-09-15T16:23:48.134Z,63.20
2022-09-15T16:26:17.660Z,63.40
2022-09-15T16:28:44.527Z,63.13
2022-09-15T16:31:13.031Z,63.43
2022-09-15T16:33:39.930Z,63.32
2022-09-15T16:36:09.774Z,62.86
2022-09-15T16:38:38.431Z,62.65
2022-09-15T16:41:13.263Z,62.35
2022-09-15T16:43:39.969Z,62.50
2022-09-15T16:46:08.571Z,61.87
2022-09-15T16:48:35.420Z,61.72
2022-09-15T16:51:23.027Z,62.43
2022-09-15T16:53:50.529Z,63.15
2022-09-15T16:56:17.608Z,63.03
2022-09-15T16:58:44.569Z,63.61
2022-09-15T17:01:17.499Z,63.73
2022-09-15T17:03:44.347Z,64.00
2022-09-15T17:06:13.495Z,64.06
2022-09-15T17:08:40.503Z,64.41
2022-09-15T17:11:16.251Z,64.85
2022-09-15T17:13:45.853Z,65.30
2022-09-15T17:16:14.996Z,65.65
2022-09-15T17:18:41.761Z,65.15
2022-09-15T17:21:10.076Z,65.41
2022-09-15T17:23:39.653Z,65.38
2022-09-15T17:26:11.810Z,65.44
2022-09-15T17:28:38.527Z,65.55
2022-09-15T17:31:12.026Z,65.79
2022-09-15T17:33:38.948Z,65.56
2022-09-15T17:36:05.978Z,66.20
2022-09-15T17:38:32.654Z,65.75
2022-09-15T17:40:59.326Z,66.33
2022-09-15T17:43:29.111Z,66.44
2022-09-15T17:45:59.001Z,66.84
2022-09-15T17:48:26.094Z,67.21
2022-09-15T17:50:52.794Z,67.24
2022-09-15T17:53:21.358Z,67.61
2022-09-15T17:55:48.617Z,67.90
2022-09-15T17:58:15.590Z,67.47
2022-09-15T18:00:44.622Z,67.92
2022-09-15T18:03:18.560Z,68.19
2022-09-15T18:05:45.458Z,68.22
2022-09-15T18:08:12.181Z,68.74
2022-09-15T18:10:38.888Z,68.82
2022-09-15T18:13:06.256Z,68.94
2022-09-15T18:15:35.386Z,69.14
2022-09-15T18:18:04.376Z,69.86
2022-09-15T18:20:32.825Z,69.52
2022-09-15T18:23:04.545Z,69.65
2022-09-15T18:25:33.307Z,69.70
2022-09-15T18:28:01.283Z,69.92
2022-09-15T18:30:30.787Z,70.11
2022-09-15T18:32:58.257Z,70.18
2022-09-15T18:35:26.725Z,70.56
2022-09-15T18:37:55.982Z,70.64
2022-09-15T18:40:23.125Z,70.74
2022-09-15T18:42:49.840Z,70.57
2022-09-15T18:45:18.654Z,71.02
2022-09-15T18:47:47.363Z,71.11
2022-09-15T18:50:14.522Z,71.26
2022-09-15T18:52:42.668Z,71.20
2022-09-15T18:55:12.617Z,71.39
2022-09-15T18:57:40.061Z,71.52
2022-09-15T19:00:10.712Z,71.88
2022-09-15T19:02:37.497Z,71.88
2022-09-15T19:05:05.109Z,71.84
2022-09-15T19:07:31.812Z,71.67
2022-09-15T19:09:59.864Z,71.84
2022-09-15T19:12:26.541Z,72.02
2022-09-15T19:14:53.234Z,71.91
2022-09-15T19:17:19.843Z,71.85
2022-09-15T19:19:46.496Z,71.59
2022-09-15T19:22:13.591Z,71.88
2022-09-15T19:24:40.260Z,71.90
2022-09-15T19:27:08.995Z,71.72
2022-09-15T19:29:37.138Z,71.59
2022-09-15T19:32:06.614Z,71.76
2022-09-15T19:34:33.984Z,71.63
2022-09-15T19:37:00.664Z,71.52
2022-09-15T19:39:27.418Z,71.80
2022-09-15T19:41:54.441Z,71.85
2022-09-15T19:44:22.847Z,71.82
2022-09-15T19:46:49.858Z,71.62
2022-09-15T19:49:16.664Z,72.03
2022-09-15T19:51:43.339Z,71.95
2022-09-15T19:54:10.443Z,72.11
2022-09-15T19:56:37.940Z,72.05
2022-09-15T19:59:05.697Z,72.54
2022-09-15T20:01:33.684Z,72.81
2022-09-15T20:04:00.408Z,72.67
2022-09-15T20:06:31.688Z,72.63
2022-09-15T20:08:59.439Z,72.74
2022-09-15T20:11:27.348Z,72.35
2022-09-15T20:13:55.189Z,72.54
2022-09-15T20:16:23.568Z,72.51
2022-09-15T20:18:53.700Z,72.37
2022-09-15T20:21:45.940Z,72.31
2022-09-15T20:24:08.869Z,72.20
2022-09-15T20:26:35.454Z,72.15
2022-09-15T20:29:02.856Z,72.19
2022-09-15T20:31:30.511Z,71.99
2022-09-15T20:33:59.219Z,72.00
2022-09-15T20:36:27.753Z,72.02
2022-09-15T20:38:55.224Z,71.87
2022-09-15T20:41:24.060Z,71.89
2022-09-15T20:43:51.212Z,72.17
2022-09-15T20:46:19.990Z,72.14
2022-09-15T20:48:47.168Z,72.16
2022-09-15T20:51:16.875Z,72.32
2022-09-15T20:53:45.254Z,72.55
2022-09-15T20:56:12.368Z,72.79
2022-09-15T20:58:39.486Z,72.97
2022-09-15T21:01:08.338Z,72.96
2022-09-15T21:03:36.714Z,73.20
2022-09-15T21:06:05.303Z,73.54
2022-09-15T21:08:34.073Z,73.66
2022-09-15T21:11:00.682Z,73.71
2022-09-15T21:13:28.693Z,73.75
2022-09-15T21:15:56.172Z,73.96
2022-09-15T21:18:23.054Z,74.19
2022-09-15T21:20:54.832Z,73.86
2022-09-15T21:23:21.473Z,73.78
2022-09-15T21:26:01.186Z,74.05
2022-09-15T21:28:28.939Z,74.02
2022-09-15T21:31:01.335Z,74.21
2022-09-15T21:33:27.915Z,74.47
2022-09-15T21:36:02.156Z,74.44
2022-09-15T21:38:28.739Z,74.64
2022-09-15T21:40:56.726Z,74.42
2022-09-15T21:43:23.439Z,74.22
2022-09-15T21:45:55.183Z,74.40
2022-09-15T21:48:21.981Z,74.33
2022-09-15T21:50:52.131Z,74.15
2022-09-15T21:53:19.006Z,74.64
2022-09-15T21:55:45.836Z,74.61
2022-09-15T21:58:14.012Z,74.45
2022-09-15T22:00:40.648Z,74.57
2022-09-15T22:03:07.169Z,74.17
2022-09-15T22:05:33.770Z,74.12
2022-09-15T22:08:04.702Z,74.16
2022-09-15T22:10:31.582Z,74.22
2022-09-15T22:12:58.126Z,74.08
2022-09-15T22:15:26.144Z,73.78
2022-09-15T22:17:53.006Z,73.88
2022-09-15T22:20:19.546Z,74.17
2022-09-15T22:22:46.131Z,74.05
2022-09-15T22:25:14.524Z,74.13
2022-09-15T22:27:43.231Z,74.21
2022-09-15T22:30:12.186Z,74.18
2022-09-15T22:32:40.152Z,74.29
2022-09-15T22:35:07.818Z,74.36
2022-09-15T22:37:34.698Z,74.67
2022-09-15T22:40:01.788Z,74.74
2022-09-15T22:42:28.388Z,74.78
2022-09-15T22:44:55.100Z,74.65
2022-09-15T22:47:21.610Z,74.75
2022-09-15T22:49:49.583Z,74.62
2022-09-15T22:52:16.173Z,75.09
2022-09-15T22:54:42.738Z,75.03
2022-09-15T22:57:09.309Z,75.54
2022-09-15T22:59:35.863Z,75.48
2022-09-15T23:02:02.542Z,75.22
2022-09-15T23:04:29.329Z,75.50
2022-09-15T23:06:57.262Z,75.29
2022-09-15T23:09:23.772Z,74.90
2022-09-15T23:11:50.328Z,74.84
2022-09-15T23:14:17.198Z,74.79
2022-09-15T23:16:44.303Z,74.58
2022-09-15T23:19:12.287Z,74.66
2022-09-15T23:21:38.901Z,74.70
2022-09-15T23:24:07.197Z,74.73
2022-09-15T23:26:33.780Z,74.64
2022-09-15T23:29:00.279Z,74.79
2022-09-15T23:31:27.058Z,74.56
2022-09-15T23:33:53.707Z,74.73
2022-09-15T23:36:20.314Z,74.45
2022-09-15T23:38:47.991Z,74.77
2022-09-15T23:41:17.362Z,74.81
2022-09-15T23:43:43.942Z,75.05
2022-09-15T23:46:10.560Z,74.88
2022-09-15T23:48:37.724Z,74.94
2022-09-15T23:51:05.250Z,74.73
2022-09-15T23:53:31.951Z,74.72
2022-09-15T23:55:58.803Z,74.61
2022-09-15T23:58:27.363Z,74.72
